createdAt,value
2023-02-18T00:02:45.299Z,19.83
2023-02-18T00:07:47.729Z,10.10
2023-02-18T00:12:51.178Z,10.40
2023-02-18T00:17:53.572Z,13.07
2023-02-18T00:22:56.090Z,11.77
2023-02-18T00:27:58.431Z,11.77
2023-02-18T00:33:00.828Z,8.97
2023-02-18T00:38:03.226Z,13.07
2023-02-18T00:43:06.186Z,11.90
2023-02-18T00:48:08.536Z,11.67
2023-02-18T00:53:11.228Z,7.50
2023-02-18T00:58:14.569Z,13.37
2023-02-18T01:03:17.459Z,9.97
2023-02-18T01:08:21.117Z,12.10
2023-02-18T01:13:26.304Z,10.63
2023-02-18T01:18:28.843Z,15.37
2023-02-18T01:23:31.651Z,11.00
2023-02-18T01:28:34.364Z,14.87
2023-02-18T01:33:37.169Z,12.57
2023-02-18T01:38:39.886Z,13.63
2023-02-18T01:43:42.592Z,10.10
2023-02-18T01:48:53.764Z,11.27
2023-02-18T01:54:01.952Z,12.93
2023-02-18T01:59:11.744Z,13.70
2023-02-18T02:04:14.430Z,11.07
2023-02-18T02:09:19.598Z,18.23
2023-02-18T02:14:36.576Z,16.67
2023-02-18T02:19:51.210Z,9.17
2023-02-18T02:24:59.217Z,11.60
2023-02-18T02:30:33.559Z,14.53
2023-02-18T02:36:00.963Z,19.00
2023-02-18T02:41:17.329Z,7.83
2023-02-18T02:46:44.163Z,8.83
2023-02-18T02:51:56.989Z,7.43
2023-02-18T02:57:09.601Z,10.40
2023-02-18T03:02:49.884Z,12.53
2023-02-18T03:08:04.835Z,15.67
2023-02-18T03:13:33.939Z,9.83
2023-02-18T03:18:51.768Z,7.60
2023-02-18T03:24:00.379Z,13.30
2023-02-18T03:29:07.474Z,13.00
2023-02-18T03:34:20.131Z,16.23
2023-02-18T03:39:25.604Z,14.03
2023-02-18T03:44:28.050Z,13.63
2023-02-18T03:49:30.836Z,16.47
2023-02-18T03:54:35.026Z,15.07
2023-02-18T03:59:37.546Z,16.47
2023-02-18T04:04:40.078Z,14.00
2023-02-18T04:09:42.529Z,10.17
2023-02-18T04:14:45.068Z,9.53
2023-02-18T04:19:47.486Z,10.63
2023-02-18T04:24:49.846Z,14.20
2023-02-18T04:29:52.730Z,9.93
2023-02-18T04:34:55.110Z,16.70
2023-02-18T04:39:57.497Z,11.80
2023-02-18T04:44:59.900Z,12.13
2023-02-18T04:50:02.696Z,11.33
2023-02-18T04:55:05.436Z,12.27
2023-02-18T05:00:09.632Z,12.37
2023-02-18T05:05:12.746Z,9.37
2023-02-18T05:10:18.362Z,14.93
2023-02-18T05:15:20.803Z,12.70
2023-02-18T05:20:23.182Z,14.50
2023-02-18T05:25:25.702Z,8.93
2023-02-18T05:30:28.155Z,9.67
2023-02-18T05:35:30.585Z,17.27
2023-02-18T05:40:32.947Z,12.13
2023-02-18T05:45:35.686Z,15.40
2023-02-18T05:50:38.352Z,13.30
2023-02-18T05:55:40.809Z,10.63
2023-02-18T06:00:43.320Z,14.83
2023-02-18T06:05:45.710Z,23.07
2023-02-18T06:10:48.182Z,14.87
2023-02-18T06:15:51.962Z,64.73
2023-02-18T06:20:54.554Z,22.10
2023-02-18T06:25:56.932Z,17.90
2023-02-18T06:30:59.458Z,11.00
2023-02-18T06:36:09.644Z,13.37
2023-02-18T06:41:14.009Z,9.73
2023-02-18T06:46:16.441Z,18.20
2023-02-18T06:51:19.893Z,16.70
2023-02-18T06:56:22.282Z,16.33
2023-02-18T07:01:24.708Z,16.33
2023-02-18T07:06:27.030Z,13.57
2023-02-18T07:11:29.428Z,16.53
2023-02-18T07:16:31.861Z,16.97
2023-02-18T07:21:34.303Z,14.90
2023-02-18T07:26:36.843Z,22.50
2023-02-18T07:31:39.385Z,28.97
2023-02-18T07:36:42.543Z,13.73
2023-02-18T07:41:44.912Z,14.47
2023-02-18T07:46:51.010Z,15.43
2023-02-18T07:51:54.078Z,15.00
2023-02-18T07:56:56.474Z,17.83
2023-02-18T08:01:58.995Z,13.67
2023-02-18T08:07:01.517Z,14.87
2023-02-18T08:12:04.107Z,19.13
2023-02-18T08:17:06.525Z,24.93
2023-02-18T08:22:10.034Z,68.87
2023-02-18T08:27:13.475Z,157.77
2023-02-18T08:32:15.974Z,57.17
2023-02-18T08:37:18.383Z,74.40
2023-02-18T08:42:20.863Z,16.90
2023-02-18T08:48:13.667Z,16.23
2023-02-18T08:52:46.045Z,11.17
2023-02-18T08:57:48.937Z,11.37
2023-02-18T09:02:51.429Z,21.50
2023-02-18T09:07:53.849Z,9.53
2023-02-18T09:12:56.267Z,104.83
2023-02-18T09:17:59.837Z,26.83
2023-02-18T09:23:03.767Z,21.87
2023-02-18T09:28:06.224Z,19.73
2023-02-18T09:33:08.756Z,20.70
2023-02-18T09:38:13.224Z,12.20
2023-02-18T09:43:33.457Z,13.13
2023-02-18T09:48:37.510Z,10.17
2023-02-18T09:53:42.107Z,9.70
2023-02-18T09:58:46.008Z,17.33
2023-02-18T10:03:48.842Z,10.87
2023-02-18T10:08:54.091Z,21.40
2023-02-18T10:13:57.611Z,14.50
2023-02-18T10:19:04.072Z,28.23
2023-02-18T10:24:29.175Z,9.23
2023-02-18T10:29:32.397Z,8.50
2023-02-18T10:34:45.945Z,13.97
2023-02-18T10:40:09.153Z,8.07
2023-02-18T10:45:17.546Z,12.33
2023-02-18T10:50:34.115Z,12.87
2023-02-18T10:55:45.426Z,18.13
2023-02-18T11:00:47.832Z,14.83
2023-02-18T11:05:56.270Z,8.67
2023-02-18T11:10:59.209Z,10.47
2023-02-18T11:16:05.281Z,8.93
2023-02-18T11:21:21.582Z,8.43
2023-02-18T11:26:32.249Z,6.27
2023-02-18T11:31:45.021Z,9.77
2023-02-18T11:36:49.327Z,20.63
2023-02-18T11:41:59.408Z,6.30
2023-02-18T11:47:14.003Z,13.50
2023-02-18T11:52:25.756Z,14.57
2023-02-18T11:57:29.088Z,28.23
2023-02-18T12:02:38.430Z,13.17
2023-02-18T12:07:55.489Z,18.10
2023-02-18T12:13:08.012Z,12.73
2023-02-18T12:18:30.190Z,14.97
2023-02-18T12:23:43.998Z,19.87
2023-02-18T12:28:52.701Z,10.83
2023-02-18T12:34:30.317Z,12.70
2023-02-18T12:39:55.427Z,13.53
2023-02-18T12:45:00.500Z,31.93
2023-02-18T12:50:02.846Z,133.43
2023-02-18T12:55:50.913Z,28.03
2023-02-18T13:01:05.799Z,41.23
2023-02-18T13:06:08.504Z,82.97
2023-02-18T13:11:54.988Z,108.93
2023-02-18T13:17:01.039Z,39.30
2023-02-18T13:22:06.204Z,40.70
2023-02-18T13:27:27.404Z,47.97
2023-02-18T13:32:55.396Z,46.77
2023-02-18T13:38:37.160Z,71.77
2023-02-18T13:43:39.967Z,256.27
2023-02-18T13:48:49.316Z,351.53
2023-02-18T13:54:05.322Z,28.27
2023-02-18T13:59:34.385Z,30.27
2023-02-18T14:04:40.241Z,51.83
2023-02-18T14:09:43.687Z,48.73
2023-02-18T14:14:46.354Z,30.87
2023-02-18T14:20:00.929Z,31.73
2023-02-18T14:25:09.493Z,71.87
2023-02-18T14:30:31.319Z,51.77
2023-02-18T14:35:52.239Z,48.77
2023-02-18T14:41:13.327Z,47.50
2023-02-18T14:46:20.737Z,219.10
2023-02-18T14:51:27.947Z,96.13
2023-02-18T14:56:31.075Z,144.60
2023-02-18T15:01:36.889Z,217.93
2023-02-18T15:06:40.199Z,100.73
2023-02-18T15:11:50.632Z,65.50
2023-02-18T15:16:53.903Z,130.13
2023-02-18T15:21:57.669Z,202.33
2023-02-18T15:27:04.123Z,138.73
2023-02-18T15:32:19.995Z,134.17
2023-02-18T15:37:22.587Z,69.43
2023-02-18T15:42:24.957Z,130.13
2023-02-18T15:47:27.554Z,71.90
2023-02-18T15:52:33.027Z,59.90
2023-02-18T15:57:36.996Z,63.77
2023-02-18T16:02:51.968Z,54.53
2023-02-18T16:08:02.776Z,68.83
2023-02-18T16:13:06.143Z,44.70
2023-02-18T16:18:24.020Z,83.00
2023-02-18T16:23:34.751Z,52.50
2023-02-18T16:28:37.382Z,55.50
2023-02-18T16:33:39.786Z,148.83
2023-02-18T16:38:43.579Z,94.87
2023-02-18T16:43:50.418Z,310.87
2023-02-18T16:48:55.783Z,89.47
2023-02-18T16:53:58.396Z,69.03
2023-02-18T16:59:00.817Z,160.53
2023-02-18T17:04:05.727Z,83.37
2023-02-18T17:09:22.159Z,110.93
2023-02-18T17:14:24.685Z,146.93
2023-02-18T17:19:27.102Z,81.07
2023-02-18T17:24:29.512Z,54.20
2023-02-18T17:29:33.292Z,55.77
2023-02-18T17:34:37.734Z,105.00
2023-02-18T17:39:40.296Z,73.83
2023-02-18T17:44:42.695Z,59.43
2023-02-18T17:49:45.180Z,59.13
2023-02-18T17:54:47.529Z,57.77
2023-02-18T17:59:49.900Z,31.30
2023-02-18T18:04:52.252Z,46.73
2023-02-18T18:09:55.010Z,59.33
2023-02-18T18:14:57.435Z,59.60
2023-02-18T18:19:59.804Z,75.67
2023-02-18T18:25:04.704Z,49.07
2023-02-18T18:30:07.767Z,19.80
2023-02-18T18:35:34.306Z,23.20
2023-02-18T18:40:36.822Z,38.30
2023-02-18T18:45:39.308Z,25.87
2023-02-18T18:50:42.466Z,64.73
2023-02-18T18:55:45.667Z,27.57
2023-02-18T19:00:54.544Z,60.13
2023-02-18T19:05:58.296Z,85.93
2023-02-18T19:11:02.563Z,92.03
2023-02-18T19:16:07.908Z,213.47
2023-02-18T19:21:12.388Z,49.07
2023-02-18T19:26:16.952Z,134.30
2023-02-18T19:31:24.346Z,93.30
2023-02-18T19:36:26.928Z,64.03
2023-02-18T19:41:29.422Z,31.47
2023-02-18T19:46:32.550Z,113.40
2023-02-18T19:51:34.950Z,174.00
2023-02-18T19:56:37.355Z,83.03
2023-02-18T20:01:39.803Z,121.60
2023-02-18T20:06:42.350Z,110.37
2023-02-18T20:11:45.245Z,53.10
2023-02-18T20:16:47.624Z,34.50
2023-02-18T20:21:50.739Z,54.87
2023-02-18T20:26:53.154Z,140.07
2023-02-18T20:31:56.378Z,297.23
2023-02-18T20:36:59.119Z,112.00
2023-02-18T20:42:11.202Z,67.47
2023-02-18T20:47:18.218Z,82.33
2023-02-18T20:52:20.682Z,35.43
2023-02-18T20:57:23.359Z,67.90
2023-02-18T21:02:25.881Z,116.67
2023-02-18T21:07:28.379Z,228.30
2023-02-18T21:12:31.052Z,134.67
2023-02-18T21:17:33.497Z,97.73
2023-02-18T21:22:36.418Z,57.13
2023-02-18T21:27:38.846Z,92.10
2023-02-18T21:32:41.288Z,123.83
2023-02-18T21:37:43.823Z,113.73
2023-02-18T21:42:46.252Z,139.20
2023-02-18T21:47:48.900Z,117.60
2023-02-18T21:52:51.325Z,84.23
2023-02-18T21:57:53.714Z,54.50
2023-02-18T22:02:56.288Z,78.57
2023-02-18T22:07:58.714Z,85.80
2023-02-18T22:13:01.367Z,47.50
2023-02-18T22:18:03.896Z,58.10
2023-02-18T22:23:06.498Z,74.03
2023-02-18T22:28:08.964Z,29.20
2023-02-18T22:33:11.377Z,21.53
2023-02-18T22:38:13.732Z,32.87
2023-02-18T22:43:16.252Z,22.70
2023-02-18T22:48:20.048Z,14.33
2023-02-18T22:53:22.549Z,16.87
2023-02-18T22:58:25.034Z,13.20
2023-02-18T23:03:28.632Z,20.83
2023-02-18T23:08:32.474Z,37.97
2023-02-18T23:13:35.146Z,26.73
2023-02-18T23:18:37.609Z,31.20
2023-02-18T23:23:39.985Z,35.27
2023-02-18T23:28:48.262Z,20.17
2023-02-18T23:33:54.671Z,27.83
2023-02-18T23:38:59.504Z,31.83
2023-02-18T23:44:11.516Z,24.17
2023-02-18T23:49:16.109Z,37.40
2023-02-18T23:54:18.852Z,31.13
2023-02-18T23:59:21.472Z,21.17
